createdAt,value
2022-10-09T00:01:13.339Z,6.70
2022-10-09T00:03:42.163Z,6.50
2022-10-09T00:06:10.972Z,3.72
2022-10-09T00:08:43.793Z,3.90
2022-10-09T00:11:17.190Z,6.85
2022-10-09T00:13:44.345Z,2.85
2022-10-09T00:16:13.014Z,3.53
2022-10-09T00:18:40.303Z,3.13
2022-10-09T00:21:19.705Z,5.78
2022-10-09T00:23:47.009Z,5.20
2022-10-09T00:26:14.440Z,4.15
2022-10-09T00:28:41.560Z,6.55
2022-10-09T00:31:10.075Z,4.53
2022-10-09T00:33:37.745Z,3.00
2022-10-09T00:36:11.420Z,4.22
2022-10-09T00:38:38.900Z,5.97
2022-10-09T00:41:06.196Z,6.57
2022-10-09T00:44:25.283Z,2.90
2022-10-09T00:46:52.769Z,6.55
2022-10-09T00:49:33.303Z,6.38
2022-10-09T00:52:04.876Z,5.95
2022-10-09T00:54:36.903Z,3.65
2022-10-09T00:57:03.976Z,2.45
2022-10-09T00:59:31.791Z,3.42
2022-10-09T01:01:59.187Z,2.42
2022-10-09T01:04:26.528Z,5.38
2022-10-09T01:07:11.140Z,3.53
2022-10-09T01:10:11.519Z,4.18
2022-10-09T01:12:59.727Z,7.70
2022-10-09T01:15:51.836Z,4.45
2022-10-09T01:18:29.416Z,3.55
2022-10-09T01:20:56.760Z,4.00
2022-10-09T01:24:02.864Z,5.03
2022-10-09T01:27:03.522Z,4.35
2022-10-09T01:29:45.132Z,6.35
2022-10-09T01:32:16.252Z,3.35
2022-10-09T01:34:46.006Z,3.17
2022-10-09T01:37:15.136Z,9.48
2022-10-09T01:39:44.617Z,4.38
2022-10-09T01:42:13.509Z,6.75
2022-10-09T01:44:40.856Z,3.08
2022-10-09T01:47:14.801Z,7.40
2022-10-09T01:49:47.390Z,9.02
2022-10-09T01:52:42.001Z,2.95
2022-10-09T01:55:23.543Z,2.35
2022-10-09T01:58:16.657Z,5.47
2022-10-09T02:00:51.593Z,2.65
2022-10-09T02:03:19.493Z,2.45
2022-10-09T02:05:49.313Z,2.22
2022-10-09T02:08:19.230Z,7.20
2022-10-09T02:10:49.263Z,6.43
2022-10-09T02:13:16.103Z,2.72
2022-10-09T02:15:48.810Z,6.78
2022-10-09T02:18:21.210Z,2.95
2022-10-09T02:20:54.555Z,3.63
2022-10-09T02:23:23.684Z,4.93
2022-10-09T02:25:52.437Z,3.85
2022-10-09T02:28:19.406Z,8.93
2022-10-09T02:31:01.432Z,2.83
2022-10-09T02:33:32.376Z,3.35
2022-10-09T02:36:00.097Z,3.15
2022-10-09T02:38:27.319Z,4.45
2022-10-09T02:41:01.409Z,5.13
2022-10-09T02:43:28.919Z,2.63
2022-10-09T02:45:56.144Z,2.53
2022-10-09T02:48:23.392Z,2.67
2022-10-09T02:50:50.647Z,3.08
2022-10-09T02:53:17.429Z,6.63
2022-10-09T02:55:44.693Z,4.10
2022-10-09T02:58:11.983Z,6.00
2022-10-09T03:00:39.493Z,3.10
2022-10-09T03:03:06.819Z,3.85
2022-10-09T03:05:33.679Z,4.35
2022-10-09T03:08:00.524Z,2.63
2022-10-09T03:10:27.327Z,3.10
2022-10-09T03:12:54.563Z,5.43
2022-10-09T03:15:21.812Z,2.25
2022-10-09T03:17:48.636Z,5.55
2022-10-09T03:20:15.893Z,3.45
2022-10-09T03:22:43.338Z,4.85
2022-10-09T03:25:10.661Z,5.35
2022-10-09T03:27:37.970Z,2.05
2022-10-09T03:30:05.407Z,3.22
2022-10-09T03:32:32.364Z,3.60
2022-10-09T03:34:59.275Z,7.03
2022-10-09T03:37:26.794Z,13.95
2022-10-09T03:39:53.637Z,6.35
2022-10-09T03:42:20.411Z,2.65
2022-10-09T03:44:47.813Z,2.00
2022-10-09T03:47:14.648Z,4.95
2022-10-09T03:49:41.907Z,9.82
2022-10-09T03:52:08.904Z,8.52
2022-10-09T03:54:35.920Z,2.92
2022-10-09T03:57:03.143Z,2.60
2022-10-09T03:59:30.304Z,3.58
2022-10-09T04:01:57.686Z,3.22
2022-10-09T04:04:24.888Z,3.38
2022-10-09T04:06:51.760Z,2.83
2022-10-09T04:09:18.541Z,7.40
2022-10-09T04:11:45.707Z,4.55
2022-10-09T04:14:13.011Z,3.55
2022-10-09T04:16:39.885Z,4.25
2022-10-09T04:19:07.159Z,3.55
2022-10-09T04:21:34.422Z,4.00
2022-10-09T04:24:03.651Z,7.50
2022-10-09T04:26:30.462Z,3.90
2022-10-09T04:28:58.248Z,4.03
2022-10-09T04:31:25.492Z,2.20
2022-10-09T04:33:55.428Z,4.85
2022-10-09T04:36:22.978Z,3.83
2022-10-09T04:38:50.145Z,3.47
2022-10-09T04:41:17.518Z,5.43
2022-10-09T04:43:44.704Z,2.60
2022-10-09T04:46:14.143Z,4.28
2022-10-09T04:48:43.304Z,2.85
2022-10-09T04:51:10.579Z,7.03
2022-10-09T04:53:38.612Z,3.00
2022-10-09T04:56:12.863Z,3.03
2022-10-09T04:58:40.775Z,8.25
2022-10-09T05:01:11.014Z,3.75
2022-10-09T05:03:38.236Z,3.72
2022-10-09T05:06:08.436Z,3.47
2022-10-09T05:08:36.533Z,5.50
2022-10-09T05:11:08.003Z,4.10
2022-10-09T05:13:41.773Z,4.07
2022-10-09T05:16:12.116Z,5.53
2022-10-09T05:18:54.029Z,5.53
2022-10-09T05:21:21.769Z,2.85
2022-10-09T05:23:49.285Z,9.05
2022-10-09T05:26:19.732Z,3.42
2022-10-09T05:28:47.553Z,5.07
2022-10-09T05:31:24.064Z,5.05
2022-10-09T05:33:51.168Z,3.17
2022-10-09T05:36:18.614Z,2.65
2022-10-09T05:38:45.949Z,3.60
2022-10-09T05:41:15.250Z,6.05
2022-10-09T05:43:45.349Z,7.55
2022-10-09T05:46:18.820Z,2.30
2022-10-09T05:48:52.503Z,3.67
2022-10-09T05:51:24.235Z,3.90
2022-10-09T05:53:51.545Z,6.10
2022-10-09T05:56:22.790Z,4.13
2022-10-09T05:58:53.745Z,5.15
2022-10-09T06:01:21.849Z,6.47
2022-10-09T06:03:56.983Z,7.35
2022-10-09T06:06:26.782Z,2.40
2022-10-09T06:08:54.545Z,2.25
2022-10-09T06:11:24.190Z,4.97
2022-10-09T06:13:52.212Z,5.05
2022-10-09T06:16:19.509Z,7.25
2022-10-09T06:18:49.348Z,4.57
2022-10-09T06:21:16.848Z,2.72
2022-10-09T06:23:44.167Z,3.08
2022-10-09T06:26:13.452Z,3.17
2022-10-09T06:28:40.971Z,3.63
2022-10-09T06:31:13.866Z,3.90
2022-10-09T06:33:42.415Z,5.15
2022-10-09T06:36:18.100Z,2.70
2022-10-09T06:38:45.402Z,4.00
2022-10-09T06:41:14.679Z,2.47
2022-10-09T06:43:42.439Z,2.53
2022-10-09T06:46:12.281Z,3.63
2022-10-09T06:48:40.330Z,9.23
2022-10-09T06:51:11.451Z,8.70
2022-10-09T06:53:40.730Z,8.32
2022-10-09T06:56:11.281Z,12.75
2022-10-09T06:58:39.795Z,15.10
2022-10-09T07:01:07.098Z,9.70
2022-10-09T07:03:35.122Z,8.75
2022-10-09T07:06:09.307Z,12.13
2022-10-09T07:08:37.225Z,10.18
2022-10-09T07:11:15.489Z,16.02
2022-10-09T07:13:43.738Z,13.55
2022-10-09T07:16:11.536Z,6.10
2022-10-09T07:18:39.211Z,9.50
2022-10-09T07:21:08.604Z,5.07
2022-10-09T07:23:36.356Z,4.20
2022-10-09T07:26:13.745Z,2.60
2022-10-09T07:28:42.360Z,6.53
2022-10-09T07:31:10.908Z,5.00
2022-10-09T07:33:38.366Z,8.65
2022-10-09T07:36:06.596Z,5.50
2022-10-09T07:38:33.911Z,16.73
2022-10-09T07:41:02.860Z,13.25
2022-10-09T07:43:30.299Z,19.75
2022-10-09T07:46:01.432Z,12.00
2022-10-09T07:48:28.971Z,16.08
2022-10-09T07:50:56.496Z,15.95
2022-10-09T07:53:24.005Z,10.40
2022-10-09T07:55:51.641Z,23.58
2022-10-09T07:58:18.464Z,76.32
2022-10-09T08:00:45.392Z,58.22
2022-10-09T08:03:12.801Z,97.13
2022-10-09T08:05:40.007Z,32.88
2022-10-09T08:08:06.963Z,16.50
2022-10-09T08:10:34.127Z,17.60
2022-10-09T08:13:01.140Z,12.18
2022-10-09T08:15:28.465Z,6.22
2022-10-09T08:17:55.957Z,6.65
2022-10-09T08:20:23.216Z,7.13
2022-10-09T08:22:50.869Z,5.13
2022-10-09T08:25:18.603Z,5.45
2022-10-09T08:27:45.898Z,10.27
2022-10-09T08:30:13.078Z,3.42
2022-10-09T08:32:40.996Z,3.45
2022-10-09T08:35:08.395Z,3.50
2022-10-09T08:37:35.647Z,2.85
2022-10-09T08:40:03.799Z,3.15
2022-10-09T08:42:36.602Z,6.68
2022-10-09T08:45:04.379Z,5.30
2022-10-09T08:47:41.341Z,6.95
2022-10-09T08:50:16.932Z,2.90
2022-10-09T08:52:52.633Z,4.40
2022-10-09T08:55:40.413Z,3.78
2022-10-09T08:58:07.876Z,2.45
2022-10-09T09:00:44.691Z,3.50
2022-10-09T09:03:26.829Z,1.90
2022-10-09T09:06:14.691Z,2.53
2022-10-09T09:08:44.152Z,6.03
2022-10-09T09:11:11.390Z,2.80
2022-10-09T09:13:51.255Z,2.45
2022-10-09T09:16:26.765Z,4.18
2022-10-09T09:19:23.418Z,3.40
2022-10-09T09:21:51.964Z,4.18
2022-10-09T09:24:20.040Z,7.55
2022-10-09T09:26:55.749Z,6.85
2022-10-09T09:29:24.683Z,3.20
2022-10-09T09:31:56.786Z,4.32
2022-10-09T09:34:41.321Z,9.15
2022-10-09T09:37:11.299Z,3.38
2022-10-09T09:42:27.524Z,3.05
2022-10-09T09:45:04.914Z,6.15
2022-10-09T09:47:41.633Z,6.88
2022-10-09T09:50:18.714Z,4.45
2022-10-09T09:52:54.505Z,4.20
2022-10-09T09:55:29.788Z,3.63
2022-10-09T09:58:03.844Z,2.78
2022-10-09T10:00:31.089Z,6.85
2022-10-09T10:03:10.446Z,2.00
2022-10-09T10:05:38.206Z,5.68
2022-10-09T10:08:25.142Z,4.32
2022-10-09T10:10:58.328Z,4.10
2022-10-09T10:13:32.657Z,3.70
2022-10-09T10:15:59.928Z,6.28
2022-10-09T10:18:29.273Z,2.88
2022-10-09T10:21:02.562Z,2.15
2022-10-09T10:23:43.851Z,5.53
2022-10-09T10:26:21.829Z,2.25
2022-10-09T10:29:01.547Z,7.40
2022-10-09T10:31:46.431Z,6.50
2022-10-09T10:34:45.418Z,2.97
2022-10-09T10:37:15.426Z,4.28
2022-10-09T10:39:45.839Z,2.67
2022-10-09T10:42:31.365Z,4.30
2022-10-09T10:45:06.010Z,2.50
2022-10-09T10:47:41.261Z,1.80
2022-10-09T10:50:15.513Z,3.67
2022-10-09T10:52:42.688Z,15.02
2022-10-09T10:55:09.850Z,3.13
2022-10-09T10:57:54.441Z,5.32
2022-10-09T11:00:21.421Z,2.35
2022-10-09T11:02:53.712Z,3.15
2022-10-09T11:05:37.602Z,3.53
2022-10-09T11:08:51.938Z,1.83
2022-10-09T11:11:43.791Z,4.28
2022-10-09T11:14:20.183Z,3.10
2022-10-09T11:16:53.385Z,4.13
2022-10-09T11:19:20.562Z,3.78
2022-10-09T11:21:47.732Z,4.22
2022-10-09T11:24:21.068Z,1.98
2022-10-09T11:27:02.999Z,2.40
2022-10-09T11:29:50.952Z,1.75
2022-10-09T11:32:21.343Z,4.68
2022-10-09T11:34:51.872Z,1.35
2022-10-09T11:37:21.780Z,3.35
2022-10-09T11:39:49.040Z,1.95
2022-10-09T11:42:19.314Z,6.47
2022-10-09T11:45:36.568Z,3.13
2022-10-09T11:48:08.511Z,1.98
2022-10-09T11:50:40.675Z,3.40
2022-10-09T11:53:15.400Z,2.72
2022-10-09T11:55:43.328Z,1.73
2022-10-09T11:58:15.087Z,2.97
2022-10-09T12:00:43.112Z,2.28
2022-10-09T12:03:22.584Z,3.67
2022-10-09T12:05:50.355Z,1.35
2022-10-09T12:08:26.576Z,1.48
2022-10-09T12:10:55.956Z,1.75
2022-10-09T12:13:29.080Z,1.77
2022-10-09T12:15:58.037Z,1.02
2022-10-09T12:18:31.346Z,3.40
2022-10-09T12:20:59.989Z,1.40
2022-10-09T12:23:29.613Z,2.90
2022-10-09T12:25:57.554Z,2.08
2022-10-09T12:28:26.927Z,2.40
2022-10-09T12:30:54.366Z,5.70
2022-10-09T12:33:24.913Z,1.17
2022-10-09T12:36:13.400Z,1.73
2022-10-09T12:38:42.183Z,4.13
2022-10-09T12:41:22.286Z,1.65
2022-10-09T12:43:51.737Z,0.90
2022-10-09T12:46:31.044Z,1.50
2022-10-09T12:48:59.375Z,2.40
2022-10-09T12:51:28.166Z,2.88
2022-10-09T12:53:55.755Z,1.40
2022-10-09T12:56:33.541Z,2.30
2022-10-09T12:59:02.421Z,1.30
2022-10-09T13:01:29.950Z,0.88
2022-10-09T13:04:03.566Z,2.20
2022-10-09T13:06:36.897Z,1.40
2022-10-09T13:09:05.955Z,1.70
2022-10-09T13:11:45.005Z,1.92
2022-10-09T13:14:47.632Z,1.95
2022-10-09T13:17:33.827Z,3.80
2022-10-09T13:20:02.901Z,2.10
2022-10-09T13:22:35.746Z,2.17
2022-10-09T13:25:03.425Z,9.05
2022-10-09T13:27:32.844Z,1.42
2022-10-09T13:30:01.447Z,2.15
2022-10-09T13:32:28.749Z,2.17
2022-10-09T13:34:55.800Z,4.45
2022-10-09T13:37:23.841Z,2.22
2022-10-09T13:39:52.215Z,2.90
2022-10-09T13:42:19.769Z,0.90
2022-10-09T13:44:47.009Z,6.68
2022-10-09T13:47:14.071Z,3.60
2022-10-09T13:49:41.380Z,1.50
2022-10-09T13:52:08.502Z,1.00
2022-10-09T13:54:36.263Z,1.95
2022-10-09T13:57:03.654Z,12.57
2022-10-09T13:59:32.308Z,3.13
2022-10-09T14:01:59.817Z,1.27
2022-10-09T14:04:27.890Z,1.98
2022-10-09T14:06:55.120Z,1.80
2022-10-09T14:09:22.432Z,4.88
2022-10-09T14:11:49.802Z,2.03
2022-10-09T14:14:16.991Z,1.55
2022-10-09T14:16:44.401Z,0.73
2022-10-09T14:19:11.862Z,2.55
2022-10-09T14:21:39.100Z,1.63
2022-10-09T14:24:06.495Z,1.40
2022-10-09T14:26:34.518Z,2.22
2022-10-09T14:29:03.287Z,2.03
2022-10-09T14:31:31.229Z,1.52
2022-10-09T14:33:59.197Z,0.90
2022-10-09T14:36:27.029Z,1.73
2022-10-09T14:38:54.641Z,2.33
2022-10-09T14:41:22.248Z,5.50
2022-10-09T14:43:55.207Z,1.40
2022-10-09T14:46:22.396Z,1.67
2022-10-09T14:48:49.666Z,1.85
2022-10-09T14:51:18.257Z,2.47
2022-10-09T14:53:45.556Z,3.53
2022-10-09T14:56:14.725Z,3.45
2022-10-09T14:58:42.598Z,3.45
2022-10-09T15:01:13.350Z,2.78
2022-10-09T15:03:40.771Z,5.28
2022-10-09T15:06:08.903Z,2.90
2022-10-09T15:08:37.107Z,3.58
2022-10-09T15:11:04.604Z,2.75
2022-10-09T15:13:34.015Z,3.83
2022-10-09T15:16:01.632Z,1.63
2022-10-09T15:18:29.518Z,2.70
2022-10-09T15:21:00.857Z,2.70
2022-10-09T15:23:28.689Z,1.98
2022-10-09T15:25:57.337Z,5.10
2022-10-09T15:28:24.659Z,5.20
2022-10-09T15:31:00.399Z,6.65
2022-10-09T15:33:28.001Z,1.70
2022-10-09T15:35:55.244Z,2.53
2022-10-09T15:38:24.281Z,1.15
2022-10-09T15:40:52.669Z,2.03
2022-10-09T15:43:20.731Z,1.52
2022-10-09T15:45:48.596Z,2.28
2022-10-09T15:48:17.490Z,5.05
2022-10-09T15:50:46.491Z,1.83
2022-10-09T15:53:14.980Z,1.98
2022-10-09T15:55:46.379Z,3.63
2022-10-09T15:58:13.894Z,2.08
2022-10-09T16:00:42.361Z,1.73
2022-10-09T16:03:10.820Z,3.67
2022-10-09T16:05:41.249Z,1.45
2022-10-09T16:08:08.055Z,3.45
2022-10-09T16:10:35.312Z,1.45
2022-10-09T16:13:03.105Z,1.73
2022-10-09T16:15:30.325Z,2.55
2022-10-09T16:17:57.508Z,1.70
2022-10-09T16:20:25.165Z,3.03
2022-10-09T16:22:52.864Z,1.90
2022-10-09T16:25:20.304Z,2.63
2022-10-09T16:27:47.490Z,2.08
2022-10-09T16:30:14.893Z,4.32
2022-10-09T16:32:42.150Z,2.13
2022-10-09T16:35:09.550Z,2.78
2022-10-09T16:37:36.808Z,5.30
2022-10-09T16:40:04.356Z,2.97
2022-10-09T16:42:32.688Z,4.88
2022-10-09T16:45:00.998Z,6.10
2022-10-09T16:47:29.268Z,3.03
2022-10-09T16:49:56.935Z,2.83
2022-10-09T16:52:26.804Z,2.17
2022-10-09T16:54:57.018Z,2.75
2022-10-09T16:57:26.818Z,3.40
2022-10-09T16:59:54.195Z,3.85
2022-10-09T17:02:23.408Z,3.15
2022-10-09T17:04:50.610Z,1.65
2022-10-09T17:07:20.203Z,4.38
2022-10-09T17:09:48.384Z,1.95
2022-10-09T17:12:15.748Z,3.10
2022-10-09T17:14:46.431Z,2.67
2022-10-09T17:17:13.730Z,1.08
2022-10-09T17:19:42.692Z,2.53
2022-10-09T17:22:18.648Z,2.33
2022-10-09T17:24:47.511Z,2.45
2022-10-09T17:27:14.791Z,5.85
2022-10-09T17:29:41.958Z,2.97
2022-10-09T17:32:12.300Z,4.28
2022-10-09T17:34:43.070Z,5.28
2022-10-09T17:37:10.359Z,8.63
2022-10-09T17:39:37.185Z,6.28
2022-10-09T17:42:04.761Z,7.32
2022-10-09T17:44:32.040Z,3.63
2022-10-09T17:47:00.857Z,3.80
2022-10-09T17:49:28.598Z,3.78
2022-10-09T17:51:56.515Z,3.03
2022-10-09T17:54:23.821Z,9.90
2022-10-09T17:56:51.097Z,2.33
2022-10-09T17:59:18.417Z,4.20
2022-10-09T18:01:45.738Z,8.30
2022-10-09T18:04:16.096Z,3.45
2022-10-09T18:06:43.544Z,3.60
2022-10-09T18:09:10.929Z,6.00
2022-10-09T18:11:38.043Z,3.75
2022-10-09T18:14:05.444Z,2.20
2022-10-09T18:16:36.755Z,4.22
2022-10-09T18:19:05.646Z,5.80
2022-10-09T18:21:34.052Z,2.72
2022-10-09T18:24:00.930Z,3.83
2022-10-09T18:26:28.217Z,1.83
2022-10-09T18:28:55.492Z,3.58
2022-10-09T18:31:23.798Z,5.07
2022-10-09T18:33:54.872Z,4.93
2022-10-09T18:36:24.235Z,4.72
2022-10-09T18:38:58.546Z,3.90
2022-10-09T18:41:28.205Z,5.10
2022-10-09T18:43:55.742Z,6.90
2022-10-09T18:46:25.693Z,4.28
2022-10-09T18:48:55.229Z,2.97
2022-10-09T18:51:24.102Z,5.50
2022-10-09T18:53:53.153Z,4.47
2022-10-09T18:56:22.228Z,6.32
2022-10-09T18:58:51.595Z,2.70
2022-10-09T19:01:19.492Z,4.20
2022-10-09T19:03:49.943Z,3.60
2022-10-09T19:06:18.530Z,3.95
2022-10-09T19:08:46.752Z,5.28
2022-10-09T19:11:14.577Z,6.47
2022-10-09T19:13:43.021Z,7.25
2022-10-09T19:16:10.337Z,12.15
2022-10-09T19:18:38.214Z,16.98
2022-10-09T19:21:05.927Z,8.93
2022-10-09T19:23:33.215Z,6.32
2022-10-09T19:26:00.624Z,3.00
2022-10-09T19:28:31.017Z,5.10
2022-10-09T19:30:58.407Z,6.20
2022-10-09T19:33:25.908Z,6.97
2022-10-09T19:35:53.882Z,5.47
2022-10-09T19:38:21.831Z,2.63
2022-10-09T19:40:49.501Z,4.60
2022-10-09T19:43:17.716Z,2.33
2022-10-09T19:45:48.627Z,4.38
2022-10-09T19:48:16.280Z,3.25
2022-10-09T19:50:44.600Z,4.00
2022-10-09T19:53:12.263Z,3.22
2022-10-09T19:55:39.520Z,3.40
2022-10-09T19:58:06.814Z,8.07
2022-10-09T20:00:34.008Z,2.88
2022-10-09T20:03:00.801Z,2.58
2022-10-09T20:05:28.441Z,2.58
2022-10-09T20:07:55.719Z,4.22
2022-10-09T20:10:23.127Z,12.43
2022-10-09T20:12:50.313Z,2.05
2022-10-09T20:15:17.513Z,1.90
2022-10-09T20:17:44.745Z,2.72
2022-10-09T20:20:12.035Z,3.40
2022-10-09T20:22:39.300Z,3.22
2022-10-09T20:25:06.777Z,3.05
2022-10-09T20:27:38.173Z,2.47
2022-10-09T20:30:06.280Z,4.22
2022-10-09T20:32:36.811Z,2.53
2022-10-09T20:35:05.399Z,3.55
2022-10-09T20:37:34.917Z,2.42
2022-10-09T20:40:02.170Z,1.40
2022-10-09T20:42:29.393Z,5.90
2022-10-09T20:44:56.666Z,2.33
2022-10-09T20:47:23.938Z,4.32
2022-10-09T20:49:51.132Z,2.88
2022-10-09T20:52:18.448Z,3.97
2022-10-09T20:54:45.697Z,1.83
2022-10-09T20:57:12.955Z,2.13
2022-10-09T20:59:40.147Z,2.40
2022-10-09T21:02:07.377Z,3.55
2022-10-09T21:04:34.565Z,2.55
2022-10-09T21:07:01.820Z,1.38
2022-10-09T21:09:33.123Z,3.95
2022-10-09T21:12:00.765Z,1.10
2022-10-09T21:14:27.562Z,7.63
2022-10-09T21:16:54.817Z,4.15
2022-10-09T21:19:21.594Z,1.63
2022-10-09T21:21:51.044Z,1.48
2022-10-09T21:24:18.565Z,4.38
2022-10-09T21:26:47.471Z,2.42
2022-10-09T21:29:14.929Z,2.92
2022-10-09T21:31:42.408Z,2.55
2022-10-09T21:34:09.642Z,1.95
2022-10-09T21:36:56.121Z,2.05
2022-10-09T21:39:30.622Z,1.50
2022-10-09T21:41:57.972Z,2.75
2022-10-09T21:44:25.184Z,6.07
2022-10-09T21:46:52.396Z,2.10
2022-10-09T21:49:20.833Z,1.80
2022-10-09T21:51:48.342Z,6.13
2022-10-09T21:54:15.944Z,3.03
2022-10-09T21:56:43.254Z,6.55
2022-10-09T21:59:10.454Z,1.52
2022-10-09T22:01:37.718Z,2.15
2022-10-09T22:04:05.039Z,2.17
2022-10-09T22:06:32.307Z,7.47
2022-10-09T22:08:59.858Z,3.20
2022-10-09T22:11:27.220Z,2.35
2022-10-09T22:13:55.430Z,3.70
2022-10-09T22:16:22.700Z,2.80
2022-10-09T22:18:49.521Z,3.28
2022-10-09T22:21:17.318Z,4.15
2022-10-09T22:23:44.644Z,3.15
2022-10-09T22:26:13.460Z,6.30
2022-10-09T22:28:40.699Z,1.48
2022-10-09T22:31:11.654Z,3.75
2022-10-09T22:33:38.933Z,2.28
2022-10-09T22:36:14.599Z,2.85
2022-10-09T22:38:42.191Z,6.20
2022-10-09T22:41:10.701Z,3.25
2022-10-09T22:43:38.652Z,3.13
2022-10-09T22:46:11.075Z,2.88
2022-10-09T22:48:38.834Z,4.13
2022-10-09T22:51:06.958Z,2.45
2022-10-09T22:53:35.050Z,6.20
2022-10-09T22:56:02.300Z,1.83
2022-10-09T22:58:29.080Z,6.15
2022-10-09T23:00:56.276Z,1.98
2022-10-09T23:03:23.483Z,3.22
2022-10-09T23:05:50.744Z,2.38
2022-10-09T23:08:18.287Z,2.65
2022-10-09T23:10:45.537Z,1.98
2022-10-09T23:13:12.753Z,1.77
2022-10-09T23:15:39.530Z,1.80
2022-10-09T23:18:06.825Z,3.70
2022-10-09T23:20:36.383Z,3.72
2022-10-09T23:23:03.954Z,2.40
2022-10-09T23:25:31.209Z,3.60
2022-10-09T23:27:58.572Z,2.33
2022-10-09T23:30:26.052Z,2.85
2022-10-09T23:32:53.535Z,1.75
2022-10-09T23:35:20.735Z,3.60
2022-10-09T23:37:47.961Z,2.88
2022-10-09T23:40:15.186Z,5.07
2022-10-09T23:42:42.390Z,3.10
2022-10-09T23:45:09.839Z,4.15
2022-10-09T23:47:37.248Z,2.13
2022-10-09T23:50:05.341Z,5.13
2022-10-09T23:52:32.741Z,3.88
2022-10-09T23:55:00.044Z,1.70
2022-10-09T23:57:27.368Z,3.80
2022-10-09T23:59:54.592Z,2.13
